sensor_id;sensor_type;location;lat;lon;timestamp;P1;durP1;ratioP1;P2;durP2;ratioP2
17153;SDS011;8692;52.164;7.558;2022-11-20T00:04:32;18.40;;;12.23;;
17153;SDS011;8692;52.164;7.558;2022-11-20T00:07:00;17.53;;;11.90;;
17153;SDS011;8692;52.164;7.558;2022-11-20T00:09:32;15.33;;;12.43;;
17153;SDS011;8692;52.164;7.558;2022-11-20T00:12:00;17.30;;;12.03;;
17153;SDS011;8692;52.164;7.558;2022-11-20T00:14:31;17.87;;;12.17;;
17153;SDS011;8692;52.164;7.558;2022-11-20T00:17:02;17.57;;;11.97;;
17153;SDS011;8692;52.164;7.558;2022-11-20T00:19:30;19.77;;;13.10;;
17153;SDS011;8692;52.164;7.558;2022-11-20T00:21:58;20.30;;;13.00;;
17153;SDS011;8692;52.164;7.558;2022-11-20T00:24:26;22.00;;;13.43;;
17153;SDS011;8692;52.164;7.558;2022-11-20T00:26:56;18.30;;;13.27;;
17153;SDS011;8692;52.164;7.558;2022-11-20T00:29:24;20.00;;;13.60;;
17153;SDS011;8692;52.164;7.558;2022-11-20T00:31:52;21.07;;;13.50;;
17153;SDS011;8692;52.164;7.558;2022-11-20T00:34:22;19.37;;;12.73;;
17153;SDS011;8692;52.164;7.558;2022-11-20T00:36:50;19.13;;;12.67;;
17153;SDS011;8692;52.164;7.558;2022-11-20T00:39:20;19.53;;;12.97;;
17153;SDS011;8692;52.164;7.558;2022-11-20T00:41:49;18.90;;;12.47;;
17153;SDS011;8692;52.164;7.558;2022-11-20T00:44:18;17.20;;;11.97;;
17153;SDS011;8692;52.164;7.558;2022-11-20T00:46:46;17.37;;;12.23;;
17153;SDS011;8692;52.164;7.558;2022-11-20T00:49:17;17.60;;;12.60;;
17153;SDS011;8692;52.164;7.558;2022-11-20T00:51:45;18.20;;;12.70;;
17153;SDS011;8692;52.164;7.558;2022-11-20T00:54:14;14.87;;;11.80;;
17153;SDS011;8692;52.164;7.558;2022-11-20T00:56:42;16.20;;;12.37;;
17153;SDS011;8692;52.164;7.558;2022-11-20T00:59:10;16.90;;;12.13;;
17153;SDS011;8692;52.164;7.558;2022-11-20T01:01:40;17.30;;;12.17;;
17153;SDS011;8692;52.164;7.558;2022-11-20T01:04:08;19.03;;;12.73;;
17153;SDS011;8692;52.164;7.558;2022-11-20T01:06:37;23.13;;;14.77;;
17153;SDS011;8692;52.164;7.558;2022-11-20T01:09:06;18.67;;;13.40;;
17153;SDS011;8692;52.164;7.558;2022-11-20T01:11:39;22.93;;;15.40;;
17153;SDS011;8692;52.164;7.558;2022-11-20T01:14:09;18.77;;;13.73;;
17153;SDS011;8692;52.164;7.558;2022-11-20T01:16:42;20.13;;;14.90;;
17153;SDS011;8692;52.164;7.558;2022-11-20T01:19:12;22.40;;;15.50;;
17153;SDS011;8692;52.164;7.558;2022-11-20T01:21:44;24.03;;;14.93;;
17153;SDS011;8692;52.164;7.558;2022-11-20T01:24:15;21.67;;;14.20;;
17153;SDS011;8692;52.164;7.558;2022-11-20T01:26:45;20.27;;;13.63;;
17153;SDS011;8692;52.164;7.558;2022-11-20T01:29:16;20.83;;;14.13;;
17153;SDS011;8692;52.164;7.558;2022-11-20T01:31:49;21.47;;;14.67;;
17153;SDS011;8692;52.164;7.558;2022-11-20T01:34:19;23.50;;;14.97;;
17153;SDS011;8692;52.164;7.558;2022-11-20T01:36:48;21.10;;;13.73;;
17153;SDS011;8692;52.164;7.558;2022-11-20T01:39:18;16.40;;;11.73;;
17153;SDS011;8692;52.164;7.558;2022-11-20T01:41:49;20.53;;;14.60;;
17153;SDS011;8692;52.164;7.558;2022-11-20T01:47:33;21.57;;;14.70;;
17153;SDS011;8692;52.164;7.558;2022-11-20T02:33:14;20.33;;;13.70;;
17153;SDS011;8692;52.164;7.558;2022-11-20T02:35:43;18.80;;;12.60;;
17153;SDS011;8692;52.164;7.558;2022-11-20T02:38:14;17.07;;;12.40;;
17153;SDS011;8692;52.164;7.558;2022-11-20T02:40:42;16.33;;;12.60;;
17153;SDS011;8692;52.164;7.558;2022-11-20T02:43:11;17.53;;;11.93;;
17153;SDS011;8692;52.164;7.558;2022-11-20T02:45:39;16.23;;;11.60;;
17153;SDS011;8692;52.164;7.558;2022-11-20T02:48:07;17.53;;;11.67;;
17153;SDS011;8692;52.164;7.558;2022-11-20T02:50:39;17.77;;;11.43;;
17153;SDS011;8692;52.164;7.558;2022-11-20T02:53:07;18.03;;;10.13;;
17153;SDS011;8692;52.164;7.558;2022-11-20T02:55:37;16.80;;;9.93;;
17153;SDS011;8692;52.164;7.558;2022-11-20T02:58:06;14.47;;;10.00;;
17153;SDS011;8692;52.164;7.558;2022-11-20T03:00:34;13.73;;;9.47;;
17153;SDS011;8692;52.164;7.558;2022-11-20T03:03:02;15.00;;;9.47;;
17153;SDS011;8692;52.164;7.558;2022-11-20T03:05:30;16.97;;;10.17;;
17153;SDS011;8692;52.164;7.558;2022-11-20T03:07:59;13.80;;;9.13;;
17153;SDS011;8692;52.164;7.558;2022-11-20T03:10:28;13.97;;;9.73;;
17153;SDS011;8692;52.164;7.558;2022-11-20T03:12:56;16.97;;;10.33;;
17153;SDS011;8692;52.164;7.558;2022-11-20T03:15:24;16.37;;;10.60;;
17153;SDS011;8692;52.164;7.558;2022-11-20T03:17:55;14.37;;;10.47;;
17153;SDS011;8692;52.164;7.558;2022-11-20T03:20:23;14.17;;;9.87;;
17153;SDS011;8692;52.164;7.558;2022-11-20T03:22:53;17.20;;;9.43;;
17153;SDS011;8692;52.164;7.558;2022-11-20T03:25:23;15.50;;;10.03;;
17153;SDS011;8692;52.164;7.558;2022-11-20T03:27:54;15.33;;;10.07;;
17153;SDS011;8692;52.164;7.558;2022-11-20T03:30:24;14.87;;;10.73;;
17153;SDS011;8692;52.164;7.558;2022-11-20T03:32:56;15.43;;;10.67;;
17153;SDS011;8692;52.164;7.558;2022-11-20T03:35:24;15.87;;;10.93;;
17153;SDS011;8692;52.164;7.558;2022-11-20T03:37:52;15.53;;;11.23;;
17153;SDS011;8692;52.164;7.558;2022-11-20T03:40:24;14.83;;;10.53;;
17153;SDS011;8692;52.164;7.558;2022-11-20T03:42:54;15.43;;;10.30;;
17153;SDS011;8692;52.164;7.558;2022-11-20T03:45:24;13.20;;;10.50;;
17153;SDS011;8692;52.164;7.558;2022-11-20T03:47:54;14.37;;;9.87;;
17153;SDS011;8692;52.164;7.558;2022-11-20T03:50:22;14.27;;;10.03;;
17153;SDS011;8692;52.164;7.558;2022-11-20T03:52:51;14.07;;;9.00;;
17153;SDS011;8692;52.164;7.558;2022-11-20T03:55:19;17.20;;;10.03;;
17153;SDS011;8692;52.164;7.558;2022-11-20T03:57:48;14.83;;;9.07;;
17153;SDS011;8692;52.164;7.558;2022-11-20T04:00:16;12.43;;;8.50;;
17153;SDS011;8692;52.164;7.558;2022-11-20T04:02:45;14.07;;;10.40;;
17153;SDS011;8692;52.164;7.558;2022-11-20T04:05:15;13.63;;;10.53;;
17153;SDS011;8692;52.164;7.558;2022-11-20T04:07:43;12.93;;;9.70;;
17153;SDS011;8692;52.164;7.558;2022-11-20T04:10:14;17.27;;;10.93;;
17153;SDS011;8692;52.164;7.558;2022-11-20T04:12:42;14.03;;;9.40;;
17153;SDS011;8692;52.164;7.558;2022-11-20T04:15:11;12.03;;;7.90;;
17153;SDS011;8692;52.164;7.558;2022-11-20T04:17:39;13.97;;;8.23;;
17153;SDS011;8692;52.164;7.558;2022-11-20T04:20:10;11.07;;;8.27;;
17153;SDS011;8692;52.164;7.558;2022-11-20T04:22:39;12.43;;;7.53;;
17153;SDS011;8692;52.164;7.558;2022-11-20T04:25:07;10.67;;;7.70;;
17153;SDS011;8692;52.164;7.558;2022-11-20T04:27:36;8.93;;;6.63;;
17153;SDS011;8692;52.164;7.558;2022-11-20T04:30:04;12.13;;;7.63;;
17153;SDS011;8692;52.164;7.558;2022-11-20T04:32:36;12.23;;;7.70;;
17153;SDS011;8692;52.164;7.558;2022-11-20T04:35:05;12.77;;;7.93;;
17153;SDS011;8692;52.164;7.558;2022-11-20T04:37:35;12.27;;;7.97;;
17153;SDS011;8692;52.164;7.558;2022-11-20T04:40:03;10.17;;;8.00;;
17153;SDS011;8692;52.164;7.558;2022-11-20T04:42:32;9.53;;;7.03;;
17153;SDS011;8692;52.164;7.558;2022-11-20T04:45:00;11.80;;;8.23;;
17153;SDS011;8692;52.164;7.558;2022-11-20T04:47:31;11.13;;;7.37;;
17153;SDS011;8692;52.164;7.558;2022-11-20T04:50:00;8.73;;;6.27;;
17153;SDS011;8692;52.164;7.558;2022-11-20T04:52:28;10.73;;;6.90;;
17153;SDS011;8692;52.164;7.558;2022-11-20T04:54:56;11.50;;;6.60;;
17153;SDS011;8692;52.164;7.558;2022-11-20T04:57:24;11.80;;;7.43;;
17153;SDS011;8692;52.164;7.558;2022-11-20T04:59:52;9.53;;;6.67;;
17153;SDS011;8692;52.164;7.558;2022-11-20T05:02:23;12.63;;;7.17;;
17153;SDS011;8692;52.164;7.558;2022-11-20T05:04:53;10.03;;;7.57;;
17153;SDS011;8692;52.164;7.558;2022-11-20T05:07:25;10.67;;;7.63;;
17153;SDS011;8692;52.164;7.558;2022-11-20T05:09:56;9.97;;;7.43;;
17153;SDS011;8692;52.164;7.558;2022-11-20T05:12:24;12.13;;;8.10;;
17153;SDS011;8692;52.164;7.558;2022-11-20T05:14:52;9.87;;;7.43;;
17153;SDS011;8692;52.164;7.558;2022-11-20T05:17:20;12.20;;;7.63;;
17153;SDS011;8692;52.164;7.558;2022-11-20T05:19:48;10.30;;;7.97;;
17153;SDS011;8692;52.164;7.558;2022-11-20T05:22:18;12.17;;;8.73;;
17153;SDS011;8692;52.164;7.558;2022-11-20T05:24:48;9.37;;;7.20;;
17153;SDS011;8692;52.164;7.558;2022-11-20T05:27:18;12.57;;;8.70;;
17153;SDS011;8692;52.164;7.558;2022-11-20T05:29:48;10.93;;;7.73;;
17153;SDS011;8692;52.164;7.558;2022-11-20T05:32:16;12.30;;;9.03;;
17153;SDS011;8692;52.164;7.558;2022-11-20T05:34:45;15.53;;;8.87;;
17153;SDS011;8692;52.164;7.558;2022-11-20T05:37:13;13.40;;;8.50;;
17153;SDS011;8692;52.164;7.558;2022-11-20T05:39:41;12.53;;;7.90;;
17153;SDS011;8692;52.164;7.558;2022-11-20T05:42:10;11.07;;;8.10;;
17153;SDS011;8692;52.164;7.558;2022-11-20T05:44:56;11.37;;;8.40;;
17153;SDS011;8692;52.164;7.558;2022-11-20T05:47:24;12.10;;;8.70;;
17153;SDS011;8692;52.164;7.558;2022-11-20T05:49:52;11.73;;;8.33;;
17153;SDS011;8692;52.164;7.558;2022-11-20T05:52:23;11.17;;;7.77;;
17153;SDS011;8692;52.164;7.558;2022-11-20T05:54:51;10.53;;;8.30;;
17153;SDS011;8692;52.164;7.558;2022-11-20T05:57:20;12.07;;;7.67;;
17153;SDS011;8692;52.164;7.558;2022-11-20T05:59:50;10.50;;;7.53;;
17153;SDS011;8692;52.164;7.558;2022-11-20T06:02:18;11.70;;;7.87;;
17153;SDS011;8692;52.164;7.558;2022-11-20T06:04:47;12.10;;;8.00;;
17153;SDS011;8692;52.164;7.558;2022-11-20T06:07:17;11.67;;;7.80;;
17153;SDS011;8692;52.164;7.558;2022-11-20T06:09:45;13.27;;;8.13;;
17153;SDS011;8692;52.164;7.558;2022-11-20T06:12:13;9.10;;;6.50;;
17153;SDS011;8692;52.164;7.558;2022-11-20T06:14:42;10.93;;;8.17;;
17153;SDS011;8692;52.164;7.558;2022-11-20T06:17:13;10.53;;;7.83;;
17153;SDS011;8692;52.164;7.558;2022-11-20T06:19:41;9.53;;;6.97;;
17153;SDS011;8692;52.164;7.558;2022-11-20T06:22:09;12.73;;;8.33;;
17153;SDS011;8692;52.164;7.558;2022-11-20T06:24:37;13.37;;;8.77;;
17153;SDS011;8692;52.164;7.558;2022-11-20T06:27:05;10.27;;;7.83;;
17153;SDS011;8692;52.164;7.558;2022-11-20T06:29:33;12.40;;;8.33;;
17153;SDS011;8692;52.164;7.558;2022-11-20T06:32:03;10.47;;;7.77;;
17153;SDS011;8692;52.164;7.558;2022-11-20T06:34:31;12.20;;;8.30;;
17153;SDS011;8692;52.164;7.558;2022-11-20T06:36:59;10.60;;;7.10;;
17153;SDS011;8692;52.164;7.558;2022-11-20T06:39:27;12.00;;;8.83;;
17153;SDS011;8692;52.164;7.558;2022-11-20T06:41:56;12.57;;;8.47;;
17153;SDS011;8692;52.164;7.558;2022-11-20T06:44:24;11.30;;;8.70;;
17153;SDS011;8692;52.164;7.558;2022-11-20T06:46:55;12.43;;;8.47;;
17153;SDS011;8692;52.164;7.558;2022-11-20T06:49:24;11.50;;;7.47;;
17153;SDS011;8692;52.164;7.558;2022-11-20T06:51:53;10.03;;;7.00;;
17153;SDS011;8692;52.164;7.558;2022-11-20T06:54:23;11.53;;;8.10;;
17153;SDS011;8692;52.164;7.558;2022-11-20T06:56:51;10.37;;;7.73;;
17153;SDS011;8692;52.164;7.558;2022-11-20T06:59:19;10.93;;;7.47;;
17153;SDS011;8692;52.164;7.558;2022-11-20T07:01:48;11.07;;;8.00;;
17153;SDS011;8692;52.164;7.558;2022-11-20T07:04:16;11.20;;;6.90;;
17153;SDS011;8692;52.164;7.558;2022-11-20T07:06:46;9.93;;;7.00;;
17153;SDS011;8692;52.164;7.558;2022-11-20T07:09:15;10.20;;;6.37;;
17153;SDS011;8692;52.164;7.558;2022-11-20T07:11:43;10.43;;;7.03;;
17153;SDS011;8692;52.164;7.558;2022-11-20T07:14:14;10.73;;;7.37;;
17153;SDS011;8692;52.164;7.558;2022-11-20T07:16:42;10.53;;;7.40;;
17153;SDS011;8692;52.164;7.558;2022-11-20T07:19:10;10.73;;;7.07;;
17153;SDS011;8692;52.164;7.558;2022-11-20T07:21:38;10.53;;;8.27;;
17153;SDS011;8692;52.164;7.558;2022-11-20T07:24:10;14.03;;;8.03;;
17153;SDS011;8692;52.164;7.558;2022-11-20T07:26:41;11.57;;;8.17;;
17153;SDS011;8692;52.164;7.558;2022-11-20T07:29:09;12.87;;;8.70;;
17153;SDS011;8692;52.164;7.558;2022-11-20T07:31:39;12.57;;;9.07;;
17153;SDS011;8692;52.164;7.558;2022-11-20T07:34:07;11.43;;;7.80;;
17153;SDS011;8692;52.164;7.558;2022-11-20T07:36:36;12.07;;;7.50;;
17153;SDS011;8692;52.164;7.558;2022-11-20T07:39:04;11.73;;;7.47;;
17153;SDS011;8692;52.164;7.558;2022-11-20T07:41:35;13.33;;;7.77;;
17153;SDS011;8692;52.164;7.558;2022-11-20T07:44:06;11.20;;;7.57;;
17153;SDS011;8692;52.164;7.558;2022-11-20T07:46:36;11.73;;;7.17;;
17153;SDS011;8692;52.164;7.558;2022-11-20T07:49:04;12.17;;;7.93;;
17153;SDS011;8692;52.164;7.558;2022-11-20T07:51:35;11.63;;;7.47;;
17153;SDS011;8692;52.164;7.558;2022-11-20T07:54:05;11.77;;;7.63;;
17153;SDS011;8692;52.164;7.558;2022-11-20T07:56:33;10.50;;;6.27;;
17153;SDS011;8692;52.164;7.558;2022-11-20T07:59:03;12.07;;;7.27;;
17153;SDS011;8692;52.164;7.558;2022-11-20T08:01:31;12.87;;;7.53;;
17153;SDS011;8692;52.164;7.558;2022-11-20T08:03:59;11.13;;;7.50;;
17153;SDS011;8692;52.164;7.558;2022-11-20T08:06:27;13.87;;;8.33;;
17153;SDS011;8692;52.164;7.558;2022-11-20T08:08:55;11.43;;;6.97;;
17153;SDS011;8692;52.164;7.558;2022-11-20T08:11:23;10.87;;;7.73;;
17153;SDS011;8692;52.164;7.558;2022-11-20T08:14:10;14.30;;;9.17;;
17153;SDS011;8692;52.164;7.558;2022-11-20T08:16:39;13.80;;;8.53;;
17153;SDS011;8692;52.164;7.558;2022-11-20T08:19:08;14.77;;;8.50;;
17153;SDS011;8692;52.164;7.558;2022-11-20T08:21:38;15.27;;;8.70;;
17153;SDS011;8692;52.164;7.558;2022-11-20T08:24:06;16.63;;;9.07;;
17153;SDS011;8692;52.164;7.558;2022-11-20T08:26:38;13.47;;;8.63;;
17153;SDS011;8692;52.164;7.558;2022-11-20T08:29:07;13.53;;;8.70;;
17153;SDS011;8692;52.164;7.558;2022-11-20T08:31:36;16.93;;;10.10;;
17153;SDS011;8692;52.164;7.558;2022-11-20T08:34:07;18.17;;;8.73;;
17153;SDS011;8692;52.164;7.558;2022-11-20T08:36:38;20.27;;;9.73;;
17153;SDS011;8692;52.164;7.558;2022-11-20T08:39:06;20.87;;;9.17;;
17153;SDS011;8692;52.164;7.558;2022-11-20T08:41:34;16.00;;;9.97;;
17153;SDS011;8692;52.164;7.558;2022-11-20T08:44:03;17.47;;;9.60;;
17153;SDS011;8692;52.164;7.558;2022-11-20T08:46:37;15.20;;;8.83;;
17153;SDS011;8692;52.164;7.558;2022-11-20T08:49:10;14.53;;;8.60;;
17153;SDS011;8692;52.164;7.558;2022-11-20T08:51:39;21.67;;;10.70;;
17153;SDS011;8692;52.164;7.558;2022-11-20T08:54:08;18.83;;;10.03;;
17153;SDS011;8692;52.164;7.558;2022-11-20T08:56:36;23.73;;;11.37;;
17153;SDS011;8692;52.164;7.558;2022-11-20T08:59:04;18.87;;;9.53;;
17153;SDS011;8692;52.164;7.558;2022-11-20T09:01:54;14.63;;;8.23;;
17153;SDS011;8692;52.164;7.558;2022-11-20T09:04:22;18.53;;;9.87;;
17153;SDS011;8692;52.164;7.558;2022-11-20T09:06:50;16.47;;;10.63;;
17153;SDS011;8692;52.164;7.558;2022-11-20T09:09:18;16.40;;;9.47;;
17153;SDS011;8692;52.164;7.558;2022-11-20T09:11:47;16.67;;;9.40;;
17153;SDS011;8692;52.164;7.558;2022-11-20T09:14:16;16.67;;;9.77;;
17153;SDS011;8692;52.164;7.558;2022-11-20T09:16:44;20.33;;;9.80;;
17153;SDS011;8692;52.164;7.558;2022-11-20T09:19:14;16.13;;;9.33;;
17153;SDS011;8692;52.164;7.558;2022-11-20T09:22:02;19.13;;;10.73;;
17153;SDS011;8692;52.164;7.558;2022-11-20T09:24:33;22.73;;;10.83;;
17153;SDS011;8692;52.164;7.558;2022-11-20T09:27:02;19.67;;;10.10;;
17153;SDS011;8692;52.164;7.558;2022-11-20T09:29:31;21.03;;;10.53;;
17153;SDS011;8692;52.164;7.558;2022-11-20T09:31:59;20.40;;;10.50;;
17153;SDS011;8692;52.164;7.558;2022-11-20T09:34:29;23.03;;;11.70;;
17153;SDS011;8692;52.164;7.558;2022-11-20T09:36:59;20.10;;;10.53;;
17153;SDS011;8692;52.164;7.558;2022-11-20T09:39:34;26.07;;;12.33;;
17153;SDS011;8692;52.164;7.558;2022-11-20T09:42:09;26.53;;;12.60;;
17153;SDS011;8692;52.164;7.558;2022-11-20T09:45:05;27.47;;;13.30;;
17153;SDS011;8692;52.164;7.558;2022-11-20T09:47:53;31.00;;;14.13;;
17153;SDS011;8692;52.164;7.558;2022-11-20T09:50:33;24.67;;;12.30;;
17153;SDS011;8692;52.164;7.558;2022-11-20T09:53:12;30.10;;;13.10;;
17153;SDS011;8692;52.164;7.558;2022-11-20T09:55:43;29.17;;;14.10;;
17153;SDS011;8692;52.164;7.558;2022-11-20T09:58:17;30.27;;;14.20;;
17153;SDS011;8692;52.164;7.558;2022-11-20T10:00:52;29.30;;;14.47;;
17153;SDS011;8692;52.164;7.558;2022-11-20T10:03:26;31.83;;;15.83;;
17153;SDS011;8692;52.164;7.558;2022-11-20T10:06:05;31.43;;;14.23;;
17153;SDS011;8692;52.164;7.558;2022-11-20T10:08:41;29.93;;;14.57;;
17153;SDS011;8692;52.164;7.558;2022-11-20T10:11:17;29.03;;;14.07;;
17153;SDS011;8692;52.164;7.558;2022-11-20T10:13:51;32.33;;;15.37;;
17153;SDS011;8692;52.164;7.558;2022-11-20T10:16:26;32.97;;;14.90;;
17153;SDS011;8692;52.164;7.558;2022-11-20T10:19:10;33.70;;;15.63;;
17153;SDS011;8692;52.164;7.558;2022-11-20T10:21:56;31.80;;;15.13;;
17153;SDS011;8692;52.164;7.558;2022-11-20T10:24:33;33.57;;;16.60;;
17153;SDS011;8692;52.164;7.558;2022-11-20T10:27:10;30.30;;;14.73;;
17153;SDS011;8692;52.164;7.558;2022-11-20T10:30:00;29.03;;;13.90;;
17153;SDS011;8692;52.164;7.558;2022-11-20T10:32:36;31.40;;;15.37;;
17153;SDS011;8692;52.164;7.558;2022-11-20T10:35:14;28.50;;;15.50;;
17153;SDS011;8692;52.164;7.558;2022-11-20T10:37:50;34.27;;;16.17;;
17153;SDS011;8692;52.164;7.558;2022-11-20T10:40:27;33.07;;;16.30;;
17153;SDS011;8692;52.164;7.558;2022-11-20T10:43:08;40.07;;;18.57;;
17153;SDS011;8692;52.164;7.558;2022-11-20T10:45:44;38.17;;;17.07;;
17153;SDS011;8692;52.164;7.558;2022-11-20T10:48:19;31.07;;;16.60;;
17153;SDS011;8692;52.164;7.558;2022-11-20T10:50:53;35.83;;;16.47;;
17153;SDS011;8692;52.164;7.558;2022-11-20T10:53:36;31.77;;;17.73;;
17153;SDS011;8692;52.164;7.558;2022-11-20T10:56:11;37.53;;;18.60;;
17153;SDS011;8692;52.164;7.558;2022-11-20T10:58:48;31.40;;;16.60;;
17153;SDS011;8692;52.164;7.558;2022-11-20T11:01:28;32.30;;;16.77;;
17153;SDS011;8692;52.164;7.558;2022-11-20T11:03:56;34.50;;;18.67;;
17153;SDS011;8692;52.164;7.558;2022-11-20T11:06:28;33.53;;;16.83;;
17153;SDS011;8692;52.164;7.558;2022-11-20T11:09:04;31.70;;;16.70;;
17153;SDS011;8692;52.164;7.558;2022-11-20T11:11:38;35.63;;;18.27;;
17153;SDS011;8692;52.164;7.558;2022-11-20T11:14:06;35.83;;;19.27;;
17153;SDS011;8692;52.164;7.558;2022-11-20T11:16:35;37.53;;;18.23;;
17153;SDS011;8692;52.164;7.558;2022-11-20T11:19:12;34.37;;;19.33;;
17153;SDS011;8692;52.164;7.558;2022-11-20T11:21:46;29.33;;;17.97;;
17153;SDS011;8692;52.164;7.558;2022-11-20T11:24:23;33.50;;;19.87;;
17153;SDS011;8692;52.164;7.558;2022-11-20T11:27:10;37.67;;;20.23;;
17153;SDS011;8692;52.164;7.558;2022-11-20T11:29:43;35.80;;;19.77;;
17153;SDS011;8692;52.164;7.558;2022-11-20T11:32:15;37.03;;;20.23;;
17153;SDS011;8692;52.164;7.558;2022-11-20T11:34:58;35.87;;;18.93;;
17153;SDS011;8692;52.164;7.558;2022-11-20T11:37:27;33.23;;;18.60;;
17153;SDS011;8692;52.164;7.558;2022-11-20T11:40:02;35.17;;;19.03;;
17153;SDS011;8692;52.164;7.558;2022-11-20T11:42:56;30.93;;;18.40;;
17153;SDS011;8692;52.164;7.558;2022-11-20T11:45:28;34.37;;;19.50;;
17153;SDS011;8692;52.164;7.558;2022-11-20T11:47:58;33.47;;;18.83;;
17153;SDS011;8692;52.164;7.558;2022-11-20T11:50:31;33.93;;;19.17;;
17153;SDS011;8692;52.164;7.558;2022-11-20T11:53:03;38.27;;;20.70;;
17153;SDS011;8692;52.164;7.558;2022-11-20T11:55:40;34.57;;;18.80;;
17153;SDS011;8692;52.164;7.558;2022-11-20T11:58:15;40.03;;;21.67;;
17153;SDS011;8692;52.164;7.558;2022-11-20T12:00:54;39.77;;;22.83;;
17153;SDS011;8692;52.164;7.558;2022-11-20T12:03:27;34.43;;;19.50;;
17153;SDS011;8692;52.164;7.558;2022-11-20T12:06:01;37.10;;;19.70;;
17153;SDS011;8692;52.164;7.558;2022-11-20T12:08:36;43.17;;;23.33;;
17153;SDS011;8692;52.164;7.558;2022-11-20T12:11:13;36.33;;;20.57;;
17153;SDS011;8692;52.164;7.558;2022-11-20T12:13:45;40.03;;;22.50;;
17153;SDS011;8692;52.164;7.558;2022-11-20T12:16:20;39.27;;;22.30;;
17153;SDS011;8692;52.164;7.558;2022-11-20T12:18:51;44.77;;;24.03;;
17153;SDS011;8692;52.164;7.558;2022-11-20T12:21:21;40.47;;;22.43;;
17153;SDS011;8692;52.164;7.558;2022-11-20T12:24:02;45.90;;;23.43;;
17153;SDS011;8692;52.164;7.558;2022-11-20T12:26:43;42.60;;;23.00;;
17153;SDS011;8692;52.164;7.558;2022-11-20T12:29:24;41.13;;;21.80;;
17153;SDS011;8692;52.164;7.558;2022-11-20T12:32:09;38.53;;;21.60;;
17153;SDS011;8692;52.164;7.558;2022-11-20T12:35:05;37.23;;;22.20;;
17153;SDS011;8692;52.164;7.558;2022-11-20T12:38:00;39.33;;;21.77;;
17153;SDS011;8692;52.164;7.558;2022-11-20T12:40:45;37.37;;;21.40;;
17153;SDS011;8692;52.164;7.558;2022-11-20T12:43:25;39.77;;;22.13;;
17153;SDS011;8692;52.164;7.558;2022-11-20T12:46:18;42.50;;;22.97;;
17153;SDS011;8692;52.164;7.558;2022-11-20T12:49:00;39.57;;;22.33;;
17153;SDS011;8692;52.164;7.558;2022-11-20T12:52:01;39.63;;;21.73;;
17153;SDS011;8692;52.164;7.558;2022-11-20T12:57:34;35.37;;;21.13;;
17153;SDS011;8692;52.164;7.558;2022-11-20T13:00:14;34.60;;;20.83;;
17153;SDS011;8692;52.164;7.558;2022-11-20T13:05:55;33.10;;;20.17;;
17153;SDS011;8692;52.164;7.558;2022-11-20T13:08:34;29.90;;;18.73;;
17153;SDS011;8692;52.164;7.558;2022-11-20T13:11:07;33.43;;;19.77;;
17153;SDS011;8692;52.164;7.558;2022-11-20T13:13:43;33.30;;;21.50;;
17153;SDS011;8692;52.164;7.558;2022-11-20T13:16:25;33.33;;;21.57;;
17153;SDS011;8692;52.164;7.558;2022-11-20T13:19:03;34.37;;;20.93;;
17153;SDS011;8692;52.164;7.558;2022-11-20T13:21:36;34.60;;;21.03;;
17153;SDS011;8692;52.164;7.558;2022-11-20T13:24:19;33.77;;;21.40;;
17153;SDS011;8692;52.164;7.558;2022-11-20T13:27:05;38.97;;;24.20;;
17153;SDS011;8692;52.164;7.558;2022-11-20T13:30:00;34.33;;;19.97;;
17153;SDS011;8692;52.164;7.558;2022-11-20T13:32:49;31.53;;;19.70;;
17153;SDS011;8692;52.164;7.558;2022-11-20T13:35:29;31.57;;;19.73;;
17153;SDS011;8692;52.164;7.558;2022-11-20T13:37:59;33.37;;;19.43;;
17153;SDS011;8692;52.164;7.558;2022-11-20T13:40:32;33.50;;;22.13;;
17153;SDS011;8692;52.164;7.558;2022-11-20T13:43:02;35.00;;;21.67;;
17153;SDS011;8692;52.164;7.558;2022-11-20T13:45:38;36.40;;;22.90;;
17153;SDS011;8692;52.164;7.558;2022-11-20T13:48:17;30.43;;;21.17;;
17153;SDS011;8692;52.164;7.558;2022-11-20T13:50:54;35.43;;;22.43;;
17153;SDS011;8692;52.164;7.558;2022-11-20T13:56:48;27.77;;;18.30;;
17153;SDS011;8692;52.164;7.558;2022-11-20T13:59:36;35.43;;;19.80;;
17153;SDS011;8692;52.164;7.558;2022-11-20T14:02:11;31.07;;;20.97;;
17153;SDS011;8692;52.164;7.558;2022-11-20T14:04:45;30.00;;;21.33;;
17153;SDS011;8692;52.164;7.558;2022-11-20T14:07:15;32.20;;;20.70;;
17153;SDS011;8692;52.164;7.558;2022-11-20T14:09:49;35.97;;;22.30;;
17153;SDS011;8692;52.164;7.558;2022-11-20T14:12:20;33.27;;;21.30;;
17153;SDS011;8692;52.164;7.558;2022-11-20T14:14:52;33.67;;;21.43;;
17153;SDS011;8692;52.164;7.558;2022-11-20T14:17:22;27.27;;;19.47;;
17153;SDS011;8692;52.164;7.558;2022-11-20T14:19:57;31.93;;;20.80;;
17153;SDS011;8692;52.164;7.558;2022-11-20T14:22:30;30.47;;;19.87;;
17153;SDS011;8692;52.164;7.558;2022-11-20T14:25:02;31.50;;;19.80;;
17153;SDS011;8692;52.164;7.558;2022-11-20T14:27:36;31.83;;;21.40;;
17153;SDS011;8692;52.164;7.558;2022-11-20T14:30:12;29.77;;;19.23;;
17153;SDS011;8692;52.164;7.558;2022-11-20T14:32:41;28.77;;;18.43;;
17153;SDS011;8692;52.164;7.558;2022-11-20T14:35:13;29.03;;;19.43;;
17153;SDS011;8692;52.164;7.558;2022-11-20T14:37:47;27.40;;;20.07;;
17153;SDS011;8692;52.164;7.558;2022-11-20T14:40:23;33.83;;;20.63;;
17153;SDS011;8692;52.164;7.558;2022-11-20T14:42:53;29.07;;;18.73;;
17153;SDS011;8692;52.164;7.558;2022-11-20T14:45:24;28.93;;;19.67;;
17153;SDS011;8692;52.164;7.558;2022-11-20T14:47:53;29.57;;;20.00;;
17153;SDS011;8692;52.164;7.558;2022-11-20T14:50:25;28.67;;;19.17;;
17153;SDS011;8692;52.164;7.558;2022-11-20T14:52:55;29.93;;;19.60;;
17153;SDS011;8692;52.164;7.558;2022-11-20T14:55:31;29.80;;;20.03;;
17153;SDS011;8692;52.164;7.558;2022-11-20T14:58:01;30.27;;;22.27;;
17153;SDS011;8692;52.164;7.558;2022-11-20T15:00:33;29.50;;;20.13;;
17153;SDS011;8692;52.164;7.558;2022-11-20T15:03:01;29.57;;;19.73;;
17153;SDS011;8692;52.164;7.558;2022-11-20T15:05:45;27.10;;;19.77;;
17153;SDS011;8692;52.164;7.558;2022-11-20T15:08:17;24.63;;;17.33;;
17153;SDS011;8692;52.164;7.558;2022-11-20T15:10:48;28.63;;;19.00;;
17153;SDS011;8692;52.164;7.558;2022-11-20T15:13:19;25.13;;;18.47;;
17153;SDS011;8692;52.164;7.558;2022-11-20T15:15:56;26.63;;;18.57;;
17153;SDS011;8692;52.164;7.558;2022-11-20T15:18:27;31.47;;;19.93;;
17153;SDS011;8692;52.164;7.558;2022-11-20T15:21:02;30.07;;;19.50;;
17153;SDS011;8692;52.164;7.558;2022-11-20T15:23:33;30.67;;;20.33;;
17153;SDS011;8692;52.164;7.558;2022-11-20T15:26:04;25.77;;;18.60;;
17153;SDS011;8692;52.164;7.558;2022-11-20T15:28:35;30.60;;;20.60;;
17153;SDS011;8692;52.164;7.558;2022-11-20T15:31:05;25.40;;;18.27;;
17153;SDS011;8692;52.164;7.558;2022-11-20T15:33:36;25.33;;;17.50;;
17153;SDS011;8692;52.164;7.558;2022-11-20T15:36:06;27.40;;;18.10;;
17153;SDS011;8692;52.164;7.558;2022-11-20T15:38:34;28.00;;;18.90;;
17153;SDS011;8692;52.164;7.558;2022-11-20T15:41:02;26.07;;;17.63;;
17153;SDS011;8692;52.164;7.558;2022-11-20T15:43:30;27.57;;;18.23;;
17153;SDS011;8692;52.164;7.558;2022-11-20T15:45:59;25.83;;;16.90;;
17153;SDS011;8692;52.164;7.558;2022-11-20T15:48:31;28.90;;;18.37;;
17153;SDS011;8692;52.164;7.558;2022-11-20T15:51:03;28.13;;;18.90;;
17153;SDS011;8692;52.164;7.558;2022-11-20T15:53:52;24.23;;;16.97;;
17153;SDS011;8692;52.164;7.558;2022-11-20T15:56:21;25.53;;;17.30;;
17153;SDS011;8692;52.164;7.558;2022-11-20T15:58:52;27.97;;;17.60;;
17153;SDS011;8692;52.164;7.558;2022-11-20T16:01:21;25.87;;;17.87;;
17153;SDS011;8692;52.164;7.558;2022-11-20T16:07:35;25.93;;;17.50;;
17153;SDS011;8692;52.164;7.558;2022-11-20T16:10:06;26.50;;;18.13;;
17153;SDS011;8692;52.164;7.558;2022-11-20T16:12:37;24.60;;;15.90;;